Time;durP1;ratioP1;P1;durP2;ratioP2;P2;SDS_P1;SDS_P2;PMS_P1;PMS_P2;Temp;Humidity;BMP_temperature;BMP_pressure;BME280_temperature;BME280_humidity;BME280_pressure;Samples;Min_cycle;Max_cycle;Signal;HPM_P1;HPM_P2
2022/08/06 00:01:07;;;;;;;;;;;10.70;99.90;;;;;;5097580;28;20465;-68
2022/08/06 00:03:33;;;;;;;5.25;1.00;;;10.80;99.90;;;;;;5083880;28;19926;-68
2022/08/06 00:05:58;;;;;;;;;;;10.80;99.90;;;;;;5090457;28;20581;-69
2022/08/06 00:08:23;;;;;;;2.58;1.23;;;10.80;99.90;;;;;;5101002;28;19924;-70
2022/08/06 00:10:49;;;;;;;;;;;10.80;99.90;;;;;;5103500;28;20071;-69
2022/08/06 00:13:15;;;;;;;5.03;1.40;;;10.80;99.90;;;;;;5101337;28;20778;-69
2022/08/06 00:15:40;;;;;;;;;;;10.80;99.90;;;;;;5083106;28;20044;-69
2022/08/06 00:18:06;;;;;;;4.30;1.40;;;10.80;99.90;;;;;;5087426;28;20002;-68
2022/08/06 00:20:33;;;;;;;3.13;1.45;;;10.80;99.90;;;;;;5088976;28;20036;-68
2022/08/06 00:22:59;;;;;;;4.97;1.08;;;10.80;99.90;;;;;;5076175;28;20036;-68
2022/08/06 00:25:25;;;;;;;;;;;10.80;99.90;;;;;;5086184;28;20047;-69
2022/08/06 00:27:50;;;;;;;4.60;0.93;;;10.80;99.90;;;;;;5077318;28;19923;-68
2022/08/06 00:30:16;;;;;;;;;;;10.90;99.90;;;;;;5068939;28;20049;-70
2022/08/06 00:32:41;;;;;;;2.55;0.98;;;11.00;99.90;;;;;;5088721;28;20489;-68
2022/08/06 00:35:07;;;;;;;;;;;11.10;99.90;;;;;;5095598;28;20671;-69
2022/08/06 00:37:32;;;;;;;3.88;1.33;;;11.10;99.90;;;;;;5092512;28;20528;-69
2022/08/06 00:39:58;;;;;;;;;;;11.20;99.90;;;;;;5089076;28;20047;-68
2022/08/06 00:42:24;;;;;;;5.32;1.40;;;11.20;99.90;;;;;;5088829;28;20043;-68
2022/08/06 00:44:50;;;;;;;;;;;11.20;99.90;;;;;;5089725;28;20032;-68
2022/08/06 00:47:16;;;;;;;2.53;1.20;;;11.20;99.90;;;;;;5088523;28;19987;-69
2022/08/06 00:49:41;;;;;;;;;;;11.20;99.90;;;;;;5084868;28;20041;-70
2022/08/06 00:52:07;;;;;;;6.97;0.95;;;11.20;99.90;;;;;;5088562;28;19920;-70
2022/08/06 00:54:32;;;;;;;;;;;11.30;99.90;;;;;;5089023;28;20075;-68
2022/08/06 00:56:58;;;;;;;2.65;1.20;;;11.30;99.90;;;;;;5088439;28;19920;-69
2022/08/06 00:59:23;;;;;;;;;;;11.30;99.90;;;;;;5088589;28;20102;-68
2022/08/06 01:01:49;;;;;;;6.53;1.00;;;11.30;99.90;;;;;;5084761;28;19927;-68
2022/08/06 01:04:15;;;;;;;;;;;11.30;99.90;;;;;;5068765;28;20488;-69
2022/08/06 01:06:40;;;;;;;4.20;1.00;;;11.30;99.90;;;;;;5068448;28;20085;-70
2022/08/06 01:09:06;;;;;;;;;;;11.40;99.90;;;;;;5068419;28;20051;-71
2022/08/06 01:11:32;;;;;;;2.72;0.88;;;11.40;99.90;;;;;;5068544;28;19920;-68
2022/08/06 01:13:57;;;;;;;;;;;11.40;99.90;;;;;;5068983;28;20563;-70
2022/08/06 01:16:38;;;;;;;1.60;0.77;;;11.30;99.90;;;;;;5067892;28;19982;-68
2022/08/06 01:19:09;;;;;;;2.95;1.45;;;11.30;99.90;;;;;;5067591;28;20103;-69
2022/08/06 01:22:23;;;;;;;8.73;1.20;;;11.10;99.90;;;;;;5067730;28;20040;-69
2022/08/06 01:25:12;;;;;;;5.10;0.90;;;10.90;99.90;;;;;;5049492;28;20072;-69
2022/08/06 01:28:09;;;;;;;4.57;1.20;;;10.70;99.90;;;;;;5067483;28;20409;-69
2022/08/06 01:31:00;;;;;;;5.65;1.00;;;10.70;99.90;;;;;;5066499;28;20457;-68
2022/08/06 01:33:31;;;;;;;3.80;1.35;;;10.70;99.90;;;;;;5059101;28;20052;-68
2022/08/06 01:36:03;;;;;;;3.35;1.25;;;10.60;99.90;;;;;;5075161;28;20040;-69
2022/08/06 01:38:40;;;;;;;3.13;1.10;;;10.50;99.90;;;;;;5078615;28;20049;-68
2022/08/06 01:41:09;;;;;;;3.28;1.20;;;10.50;99.90;;;;;;5067596;28;20041;-68
2022/08/06 01:43:36;;;;;;;5.50;1.45;;;10.60;99.90;;;;;;5067484;28;20041;-70
2022/08/06 01:46:03;;;;;;;4.97;0.88;;;10.50;99.90;;;;;;5067218;28;20048;-70
2022/08/06 01:48:32;;;;;;;3.95;0.82;;;10.60;99.90;;;;;;5066657;28;20036;-69
2022/08/06 01:51:02;;;;;;;5.22;1.30;;;10.70;99.90;;;;;;5067170;28;20044;-68
2022/08/06 01:53:40;;;;;;;3.70;1.20;;;10.70;99.90;;;;;;5066968;28;20051;-68
2022/08/06 01:56:07;;;;;;;3.30;1.02;;;10.70;99.90;;;;;;5066949;28;20106;-69
2022/08/06 01:58:42;;;;;;;5.13;0.90;;;10.80;99.90;;;;;;5067449;28;20094;-69
2022/08/06 02:01:11;;;;;;;3.45;0.82;;;10.80;99.90;;;;;;5068568;28;20033;-69
2022/08/06 02:03:45;;;;;;;3.00;1.10;;;10.90;99.90;;;;;;5071567;28;20169;-69
2022/08/06 02:06:14;;;;;;;2.65;0.95;;;10.80;99.90;;;;;;5077716;28;20089;-69
2022/08/06 02:08:42;;;;;;;5.32;1.00;;;10.80;99.90;;;;;;5086241;28;20487;-68
2022/08/06 02:11:10;;;;;;;4.18;0.98;;;10.90;99.90;;;;;;5087190;28;20044;-69
2022/08/06 02:13:38;;;;;;;2.40;1.20;;;10.90;99.90;;;;;;5085414;28;20043;-69
2022/08/06 02:16:07;;;;;;;1.77;1.00;;;10.90;99.90;;;;;;5083518;28;20538;-68
2022/08/06 02:18:36;;;;;;;7.07;1.48;;;11.00;99.90;;;;;;5084707;28;20051;-68
2022/08/06 02:21:11;;;;;;;5.07;1.00;;;10.90;99.90;;;;;;5063417;28;20033;-70
2022/08/06 02:23:37;;;;;;;2.63;0.90;;;10.90;99.90;;;;;;5049898;28;20037;-68
2022/08/06 02:26:04;;;;;;;2.38;1.15;;;10.80;99.90;;;;;;5086467;28;20051;-69
2022/08/06 02:28:31;;;;;;;2.60;0.93;;;10.60;99.90;;;;;;5087234;28;20118;-68
2022/08/06 02:30:58;;;;;;;4.20;1.05;;;10.60;99.90;;;;;;5052328;28;20190;-68
2022/08/06 02:33:24;;;;;;;3.38;1.02;;;10.50;99.90;;;;;;5066390;28;20051;-69
2022/08/06 02:36:10;;;;;;;3.17;1.08;;;10.30;99.90;;;;;;5098355;28;20424;-69
2022/08/06 02:38:53;;;;;;;4.20;1.10;;;10.30;99.90;;;;;;5066810;28;20404;-69
2022/08/06 02:41:49;;;;;;;3.78;1.15;;;10.30;99.90;;;;;;5065761;28;20772;-68
2022/08/06 02:44:39;;;;;;;1.98;1.13;;;10.40;99.90;;;;;;5046145;28;20411;-69
2022/08/06 02:47:13;;;;;;;2.35;0.90;;;10.40;99.90;;;;;;5080882;28;20048;-68
2022/08/06 02:49:46;;;;;;;2.10;1.00;;;10.30;99.90;;;;;;5086314;28;20054;-68
2022/08/06 02:52:24;;;;;;;4.28;0.95;;;10.40;99.90;;;;;;5087024;28;20044;-68
2022/08/06 02:54:56;;;;;;;2.17;1.05;;;10.30;99.90;;;;;;5086879;28;20044;-69
2022/08/06 02:57:24;;;;;;;4.10;1.58;;;10.40;99.90;;;;;;5086176;28;20499;-68
2022/08/06 02:59:57;;;;;;;3.17;1.00;;;10.30;99.90;;;;;;5083503;28;20036;-69
2022/08/06 03:02:25;;;;;;;9.27;1.08;;;10.30;99.90;;;;;;5085994;28;20043;-68
2022/08/06 03:04:53;;;;;;;1.90;0.88;;;10.30;99.90;;;;;;5090849;28;20036;-69
2022/08/06 03:07:20;;;;;;;6.18;1.27;;;10.30;99.90;;;;;;5097974;28;20036;-68
2022/08/06 03:09:48;;;;;;;4.05;1.20;;;10.30;99.90;;;;;;5101908;28;20036;-68
2022/08/06 03:12:15;;;;;;;6.35;1.05;;;10.20;99.90;;;;;;5082994;28;20089;-69
2022/08/06 03:14:43;;;;;;;5.78;1.02;;;10.20;99.90;;;;;;5085041;28;20028;-69
2022/08/06 03:17:12;;;;;;;2.40;1.05;;;10.20;99.90;;;;;;5086199;28;20105;-69
2022/08/06 03:19:38;;;;;;;3.97;1.30;;;10.20;99.90;;;;;;5085390;28;20039;-68
2022/08/06 03:22:07;;;;;;;1.38;1.13;;;10.20;99.90;;;;;;5086381;28;20864;-69
2022/08/06 03:24:35;;;;;;;3.22;1.10;;;10.10;99.90;;;;;;5086086;28;20153;-69
2022/08/06 03:27:01;;;;;;;4.30;1.35;;;10.10;99.90;;;;;;5084980;28;20077;-68
2022/08/06 03:29:28;;;;;;;2.95;1.17;;;10.10;99.90;;;;;;5085412;28;20079;-68
2022/08/06 03:31:54;;;;;;;5.38;1.20;;;10.00;99.90;;;;;;5086027;28;20048;-68
2022/08/06 03:34:21;;;;;;;3.70;1.30;;;10.00;99.90;;;;;;5085467;28;20649;-68
2022/08/06 03:36:48;;;;;;;2.13;1.10;;;10.00;99.90;;;;;;5081156;28;20408;-70
2022/08/06 03:39:15;;;;;;;2.47;1.38;;;10.00;99.90;;;;;;5065568;28;20040;-69
2022/08/06 03:41:42;;;;;;;3.55;1.52;;;10.00;99.90;;;;;;5082456;28;20051;-69
2022/08/06 03:44:08;;;;;;;2.20;1.10;;;9.90;99.90;;;;;;5077910;28;20040;-68
2022/08/06 03:46:47;;;;;;;3.97;1.45;;;10.00;99.90;;;;;;5080834;28;20044;-69
2022/08/06 03:49:36;;;;;;;3.03;1.13;;;10.00;99.90;;;;;;5085517;28;20039;-69
2022/08/06 03:52:03;;;;;;;1.85;1.08;;;10.00;99.90;;;;;;5067309;28;20145;-69
2022/08/06 03:54:33;;;;;;;2.20;1.27;;;9.90;99.90;;;;;;5070275;28;20373;-68
2022/08/06 03:57:27;;;;;;;2.35;1.20;;;9.90;99.90;;;;;;5085849;28;20048;-69
2022/08/06 04:00:00;;;;;;;2.35;1.35;;;9.90;99.90;;;;;;5063631;28;20182;-68
2022/08/06 04:02:33;;;;;;;6.38;1.20;;;9.90;99.90;;;;;;5073696;28;20067;-68
2022/08/06 04:05:00;;;;;;;5.97;1.45;;;9.90;99.90;;;;;;5069095;28;20044;-69
2022/08/06 04:07:28;;;;;;;3.85;1.40;;;9.90;99.90;;;;;;5083364;28;20044;-69
2022/08/06 04:09:54;;;;;;;4.80;1.90;;;9.80;99.90;;;;;;5082554;28;20090;-69
2022/08/06 04:12:20;;;;;;;6.30;1.75;;;9.80;99.90;;;;;;5089147;28;20044;-68
2022/08/06 04:14:46;;;;;;;4.72;1.63;;;9.80;99.90;;;;;;5075502;28;20044;-69
2022/08/06 04:17:12;;;;;;;;;;;9.80;99.90;;;;;;5083779;28;20044;-68
2022/08/06 04:19:39;;;;;;;5.30;1.33;;;9.80;99.90;;;;;;5089565;28;19985;-69
2022/08/06 04:22:04;;;;;;;3.15;1.27;;;9.80;99.90;;;;;;5061012;28;20045;-68
2022/08/06 04:24:30;;;;;;;;;;;9.80;99.90;;;;;;5050123;28;20033;-69
2022/08/06 04:26:58;;;;;;;3.40;1.33;;;9.80;99.90;;;;;;5073717;28;19923;-68
2022/08/06 04:29:24;;;;;;;3.08;1.42;;;9.90;99.90;;;;;;5089708;28;20065;-68
2022/08/06 04:31:50;;;;;;;;;;;9.90;99.90;;;;;;5078477;28;20051;-69
2022/08/06 04:34:21;;;;;;;6.15;1.60;;;9.90;99.90;;;;;;5068486;28;19916;-68
2022/08/06 04:36:47;;;;;;;3.80;1.55;;;10.00;99.90;;;;;;5064449;28;20036;-68
2022/08/06 04:39:15;;;;;;;3.38;1.35;;;10.00;99.90;;;;;;5067902;28;20439;-68
2022/08/06 04:41:41;;;;;;;9.18;1.92;;;10.00;99.90;;;;;;5068625;28;20496;-69
2022/08/06 04:44:06;;;;;;;2.47;1.58;;;10.10;99.90;;;;;;5068314;28;20036;-69
2022/08/06 04:46:33;;;;;;;;;;;10.20;99.90;;;;;;5070152;28;20099;-66
2022/08/06 04:48:58;;;;;;;2.30;1.65;;;10.30;99.90;;;;;;5080147;28;19916;-69
2022/08/06 04:51:24;;;;;;;;;;;10.40;99.90;;;;;;5088996;28;20617;-68
2022/08/06 04:53:50;;;;;;;2.67;1.40;;;10.50;99.90;;;;;;5088703;28;19927;-69
2022/08/06 04:56:15;;;;;;;;;;;10.60;99.90;;;;;;5086530;28;20097;-69
2022/08/06 04:58:41;;;;;;;4.03;1.63;;;10.60;99.90;;;;;;5065328;28;20467;-68
2022/08/06 05:01:07;;;;;;;;;;;10.60;99.90;;;;;;5073189;28;20512;-69
2022/08/06 05:03:32;;;;;;;3.65;1.23;;;10.70;99.90;;;;;;5068691;28;19916;-70
2022/08/06 05:06:01;;;;;;;;;;;10.70;99.90;;;;;;5074667;28;20131;-68
2022/08/06 05:08:29;;;;;;;5.45;1.40;;;10.70;99.90;;;;;;5088032;28;20031;-69
2022/08/06 05:11:19;;;;;;;3.50;1.42;;;10.80;99.90;;;;;;5088342;28;20035;-70
2022/08/06 05:13:46;;;;;;;8.43;1.60;;;10.80;99.90;;;;;;5069169;28;20098;-68
2022/08/06 05:16:14;;;;;;;6.20;1.60;;;10.80;99.90;;;;;;5088064;28;20122;-68
2022/08/06 05:18:44;;;;;;;4.03;1.80;;;11.00;99.90;;;;;;5095991;28;20512;-69
2022/08/06 05:21:14;;;;;;;1.83;1.50;;;11.10;99.90;;;;;;5088042;28;20524;-69
2022/08/06 05:23:46;;;;;;;3.05;1.60;;;11.40;99.90;;;;;;5088288;28;20068;-69
2022/08/06 05:26:13;;;;;;;4.50;1.85;;;11.60;99.90;;;;;;5088137;28;20090;-67
2022/08/06 05:28:40;;;;;;;3.53;1.70;;;11.70;99.90;;;;;;5087755;28;20569;-70
2022/08/06 05:31:06;;;;;;;1.75;1.52;;;11.70;99.90;;;;;;5075068;28;20094;-68
2022/08/06 05:33:33;;;;;;;;;;;11.60;99.90;;;;;;5068253;28;20041;-68
2022/08/06 05:35:59;;;;;;;2.08;1.73;;;11.60;99.90;;;;;;5066905;28;19947;-71
2022/08/06 05:38:28;;;;;;;4.53;1.55;;;11.60;99.90;;;;;;5066872;28;20044;-69
2022/08/06 05:40:55;;;;;;;6.78;2.30;;;11.60;99.90;;;;;;5067142;28;20044;-69
2022/08/06 05:43:22;;;;;;;6.45;2.03;;;11.60;99.90;;;;;;5066778;28;20121;-68
2022/08/06 05:45:49;;;;;;;3.90;1.90;;;11.60;99.90;;;;;;5067277;28;20090;-71
2022/08/06 05:48:19;;;;;;;3.05;1.58;;;11.70;99.90;;;;;;5064669;28;20059;-68
2022/08/06 05:50:52;;;;;;;1.48;1.35;;;11.90;99.90;;;;;;5066854;28;20041;-68
2022/08/06 05:53:42;;;;;;;2.47;1.55;;;12.00;99.90;;;;;;5066262;28;20564;-69
2022/08/06 05:56:14;;;;;;;4.15;1.45;;;12.20;99.90;;;;;;5069257;28;20048;-69
2022/08/06 05:58:46;;;;;;;14.00;2.10;;;12.30;99.90;;;;;;5067149;28;20540;-69
2022/08/06 06:01:13;;;;;;;2.40;1.67;;;12.40;99.90;;;;;;5072119;28;20493;-70
2022/08/06 06:03:40;;;;;;;8.73;1.73;;;12.70;99.90;;;;;;5086109;28;20115;-68
2022/08/06 06:06:07;;;;;;;5.38;1.73;;;12.90;99.90;;;;;;5085212;28;20052;-68
2022/08/06 06:08:33;;;;;;;6.85;2.25;;;13.00;99.90;;;;;;5087328;28;20046;-68
2022/08/06 06:10:58;;;;;;;;;;;12.90;99.90;;;;;;5086991;28;20118;-70
2022/08/06 06:13:25;;;;;;;3.67;1.90;;;13.00;99.90;;;;;;5087214;28;19977;-68
2022/08/06 06:16:12;;;;;;;3.88;1.60;;;13.00;99.90;;;;;;5087287;28;20040;-68
2022/08/06 06:19:04;;;;;;;2.15;1.42;;;13.00;99.90;;;;;;5089846;28;20036;-68
2022/08/06 06:21:51;;;;;;;4.35;1.90;;;13.00;99.90;;;;;;5099388;28;20039;-68
2022/08/06 06:24:40;;;;;;;4.63;2.38;;;13.00;99.90;;;;;;5088170;28;20044;-71
2022/08/06 06:27:15;;;;;;;3.58;1.75;;;13.00;99.90;;;;;;5087444;28;20059;-67
2022/08/06 06:29:59;;;;;;;4.28;1.40;;;13.20;99.90;;;;;;5087555;28;20480;-69
2022/08/06 06:32:49;;;;;;;3.75;1.98;;;14.00;99.90;;;;;;5085868;28;20044;-68
2022/08/06 06:35:33;;;;;;;4.97;1.60;;;14.60;99.90;;;;;;5046995;28;20051;-68
2022/08/06 06:38:10;;;;;;;4.20;1.20;;;15.00;99.90;;;;;;5052756;28;20073;-68
2022/08/06 06:40:51;;;;;;;5.15;1.92;;;14.70;99.90;;;;;;5086700;28;20673;-67
2022/08/06 06:43:39;;;;;;;6.70;1.67;;;14.20;99.90;;;;;;5082715;28;20037;-69
2022/08/06 06:46:12;;;;;;;3.03;1.48;;;14.00;99.90;;;;;;5064990;28;20044;-67
2022/08/06 06:48:48;;;;;;;3.63;1.88;;;13.70;99.90;;;;;;5082484;28;20079;-67
2022/08/06 06:51:26;;;;;;;3.53;1.77;;;13.70;99.90;;;;;;5088873;28;20123;-68
2022/08/06 06:53:54;;;;;;;5.35;1.42;;;13.80;99.90;;;;;;5087224;28;20047;-69
2022/08/06 06:56:24;;;;;;;4.68;1.83;;;13.70;99.90;;;;;;5087747;28;20127;-68
2022/08/06 06:59:03;;;;;;;4.22;1.48;;;14.00;99.90;;;;;;5079799;28;20594;-67
2022/08/06 07:01:32;;;;;;;13.95;2.28;;;14.40;99.90;;;;;;5070735;28;20500;-64
2022/08/06 07:04:00;;;;;;;3.85;1.23;;;14.60;99.90;;;;;;5086847;28;20028;-69
2022/08/06 07:06:28;;;;;;;2.25;1.33;;;14.70;99.90;;;;;;5085250;28;20048;-67
2022/08/06 07:08:54;;;;;;;5.43;1.02;;;14.80;99.90;;;;;;5087409;28;20556;-69
2022/08/06 07:11:23;;;;;;;3.65;1.23;;;15.00;99.90;;;;;;5086663;28;20044;-67
2022/08/06 07:13:51;;;;;;;2.22;1.17;;;15.10;99.90;;;;;;5081459;28;20671;-67
2022/08/06 07:16:22;;;;;;;3.67;1.50;;;15.20;99.90;;;;;;5084071;28;20047;-67
2022/08/06 07:18:49;;;;;;;2.90;1.77;;;15.50;99.90;;;;;;5086041;28;20060;-67
2022/08/06 07:21:17;;;;;;;5.80;1.30;;;16.20;99.90;;;;;;5085771;28;20472;-69
2022/08/06 07:23:45;;;;;;;2.60;1.08;;;16.50;99.90;;;;;;5086778;28;20459;-68
2022/08/06 07:26:13;;;;;;;5.18;1.42;;;16.70;99.60;;;;;;5086864;28;20952;-70
2022/08/06 07:28:39;;;;;;;6.88;1.27;;;16.40;99.90;;;;;;5088430;28;20040;-70
2022/08/06 07:31:06;;;;;;;2.50;1.00;;;16.00;99.90;;;;;;5090488;28;20040;-71
2022/08/06 07:33:34;;;;;;;2.65;0.88;;;15.90;99.90;;;;;;5091510;28;20039;-70
2022/08/06 07:36:00;;;;;;;3.88;1.15;;;15.90;99.90;;;;;;5050065;28;20510;-70
2022/08/06 07:38:28;;;;;;;4.85;1.40;;;15.70;99.90;;;;;;5050585;28;20056;-71
2022/08/06 07:40:57;;;;;;;6.97;1.58;;;15.70;99.90;;;;;;5088174;28;20044;-70
2022/08/06 07:43:27;;;;;;;5.22;1.35;;;15.60;99.90;;;;;;5091107;28;20043;-70
2022/08/06 07:45:55;;;;;;;8.65;2.28;;;15.50;99.90;;;;;;5089904;28;20131;-70
2022/08/06 07:48:27;;;;;;;6.22;1.30;;;15.40;99.90;;;;;;5077658;28;20055;-69
2022/08/06 07:50:54;;;;;;;2.53;1.20;;;15.30;99.90;;;;;;5085154;28;20032;-70
2022/08/06 07:53:21;;;;;;;8.00;0.95;;;15.20;99.90;;;;;;5091714;28;20036;-70
2022/08/06 07:55:47;;;;;;;5.28;0.77;;;15.20;99.90;;;;;;5088529;28;20040;-70
2022/08/06 07:58:14;;;;;;;;;;;15.50;99.90;;;;;;5049773;28;20037;-70
2022/08/06 08:00:40;;;;;;;2.60;0.70;;;15.60;99.90;;;;;;5062652;28;19920;-71
2022/08/06 08:08:37;;;;;;;6.35;0.80;;;18.30;97.40;;;;;;5085298;28;19920;-70
2022/08/06 08:11:04;;;;;;;6.85;0.82;;;19.00;96.30;;;;;;5089119;28;20047;-69
2022/08/06 08:13:32;;;;;;;3.45;0.68;;;20.00;92.70;;;;;;5090804;28;20070;-70
2022/08/06 08:15:58;;;;;;;6.03;0.70;;;21.10;92.20;;;;;;5075405;28;20040;-70
2022/08/06 08:18:31;;;;;;;4.90;1.00;;;21.90;85.80;;;;;;5094461;28;20694;-70
2022/08/06 08:20:59;;;;;;;1.35;0.43;;;22.60;82.20;;;;;;5095489;27;20558;-70
2022/08/06 08:23:27;;;;;;;3.05;0.73;;;23.10;80.00;;;;;;5090373;28;20073;-70
2022/08/06 08:25:56;;;;;;;5.32;0.70;;;23.80;75.40;;;;;;5089881;28;20072;-70
2022/08/06 08:28:21;;;;;;;2.85;0.63;;;23.40;71.90;;;;;;5090094;28;20044;-69
2022/08/06 08:30:47;;;;;;;4.47;0.73;;;24.20;74.20;;;;;;5084612;28;20047;-71
2022/08/06 08:33:13;;;;;;;8.35;0.80;;;23.70;73.20;;;;;;5068541;28;20047;-70
2022/08/06 08:35:38;;;;;;;3.38;0.80;;;23.10;78.10;;;;;;5068875;28;20032;-70
2022/08/06 08:38:04;;;;;;;3.08;0.98;;;22.50;76.50;;;;;;5068121;28;20032;-70
2022/08/06 08:40:32;;;;;;;2.25;0.80;;;22.00;80.40;;;;;;5069544;28;20044;-70
2022/08/06 08:43:00;;;;;;;4.53;0.50;;;22.00;77.90;;;;;;5068184;28;20036;-70
2022/08/06 08:45:26;;;;;;;5.60;0.95;;;22.20;81.20;;;;;;5068009;28;20040;-70
2022/08/06 08:47:53;;;;;;;2.25;0.75;;;21.50;75.90;;;;;;5068148;28;20051;-68
2022/08/06 08:50:21;;;;;;;2.92;0.70;;;19.90;82.90;;;;;;5069476;28;20106;-69
2022/08/06 08:52:50;;;;;;;2.08;0.70;;;18.90;90.20;;;;;;5066670;28;21752;-68
2022/08/06 08:55:21;;;;;;;2.10;0.70;;;18.60;90.10;;;;;;5063422;28;20056;-69
2022/08/06 08:57:48;;;;;;;4.63;0.73;;;18.00;90.10;;;;;;5067634;28;20063;-68
2022/08/06 09:00:13;;;;;;;1.77;0.77;;;17.20;91.10;;;;;;5065460;28;20040;-68
2022/08/06 09:02:41;;;;;;;2.30;0.80;;;17.30;93.20;;;;;;5067488;28;20044;-68
2022/08/06 09:05:07;;;;;;;2.10;0.73;;;17.30;94.20;;;;;;5068288;28;20394;-68
2022/08/06 09:07:33;;;;;;;;;;;17.40;92.80;;;;;;5068275;28;20036;-68
2022/08/06 09:09:59;;;;;;;3.40;0.83;;;17.20;92.70;;;;;;5067537;28;19927;-69
2022/08/06 09:12:25;;;;;;;3.53;1.45;;;17.30;93.10;;;;;;5067041;28;20039;-69
2022/08/06 09:14:51;;;;;;;;;;;17.10;93.70;;;;;;5068329;28;20043;-68
2022/08/06 09:17:17;;;;;;;4.10;1.00;;;17.30;94.70;;;;;;5068528;28;19959;-69
2022/08/06 09:19:44;;;;;;;4.10;1.20;;;17.50;94.60;;;;;;5086003;28;20036;-69
2022/08/06 09:22:09;;;;;;;3.28;0.70;;;17.50;93.70;;;;;;5076719;28;20040;-69
2022/08/06 09:24:36;;;;;;;;;;;17.40;93.90;;;;;;5088547;28;20050;-69
2022/08/06 09:27:13;;;;;;;3.33;0.57;;;17.40;93.20;;;;;;5074780;28;20309;-70
2022/08/06 09:30:00;;;;;;;2.78;0.60;;;17.40;91.60;;;;;;5067727;28;20130;-69
2022/08/06 09:32:42;;;;;;;;;;;17.30;92.20;;;;;;5068032;28;20044;-68
2022/08/06 09:35:21;;;;;;;4.20;0.60;;;17.20;94.10;;;;;;5068052;28;20325;-69
2022/08/06 09:37:58;;;;;;;3.55;0.95;;;17.30;94.00;;;;;;5067409;28;20057;-69
2022/08/06 09:40:24;;;;;;;4.65;0.95;;;17.40;92.20;;;;;;5068274;28;20428;-69
2022/08/06 09:42:50;;;;;;;;;;;17.50;93.40;;;;;;5068993;28;20441;-68
2022/08/06 09:45:18;;;;;;;4.10;0.70;;;17.30;91.90;;;;;;5064479;28;19921;-69
2022/08/06 09:47:46;;;;;;;4.15;0.80;;;17.30;93.10;;;;;;5067644;28;20048;-69
2022/08/06 09:50:12;;;;;;;2.38;0.50;;;17.40;92.20;;;;;;5066719;28;20052;-69
2022/08/06 09:52:37;;;;;;;;;;;17.50;93.70;;;;;;5068431;28;20036;-69
2022/08/06 09:55:04;;;;;;;1.13;0.52;;;17.50;90.70;;;;;;5068459;28;19916;-69
2022/08/06 09:57:45;;;;;;;2.42;0.50;;;17.60;92.20;;;;;;5067626;28;20037;-69
2022/08/06 10:00:24;;;;;;;3.47;0.93;;;18.00;92.70;;;;;;5067543;28;20078;-69
2022/08/06 10:02:54;;;;;;;1.45;0.45;;;17.90;91.00;;;;;;5086938;28;20040;-66
2022/08/06 10:05:22;;;;;;;7.95;0.77;;;17.80;90.50;;;;;;5087531;28;20090;-68
2022/08/06 10:08:27;;;;;;;3.03;0.73;;;17.80;91.00;;;;;;5087610;28;20040;-65
2022/08/06 10:10:52;;;;;;;2.35;0.55;;;17.70;91.20;;;;;;5085783;28;20450;-69
2022/08/06 10:13:26;;;;;;;;;;;17.90;93.20;;;;;;5088393;28;20101;-70
2022/08/06 10:15:53;;;;;;;5.63;0.90;;;17.40;93.00;;;;;;5079876;28;19920;-68
2022/08/06 10:18:32;;;;;;;1.05;0.50;;;17.00;91.80;;;;;;5103297;28;20068;-65
2022/08/06 10:21:10;;;;;;;1.63;0.63;;;16.50;92.10;;;;;;5070653;28;20395;-68
2022/08/06 10:23:38;;;;;;;3.33;1.00;;;16.40;92.80;;;;;;5086710;28;20538;-69
2022/08/06 10:26:06;;;;;;;1.98;0.57;;;16.40;92.40;;;;;;5086975;28;20119;-70
2022/08/06 10:28:34;;;;;;;1.85;0.52;;;16.60;93.00;;;;;;5087593;28;20047;-65
2022/08/06 10:31:04;;;;;;;2.65;0.70;;;17.00;92.40;;;;;;5086598;28;20385;-69
2022/08/06 10:33:47;;;;;;;1.85;0.55;;;17.30;91.70;;;;;;5087007;28;20051;-71
2022/08/06 10:36:15;;;;;;;1.67;0.43;;;17.10;90.90;;;;;;5087651;28;20543;-66
2022/08/06 10:38:47;;;;;;;3.80;0.73;;;17.30;90.70;;;;;;5087840;28;20040;-69
2022/08/06 10:41:13;;;;;;;2.78;0.60;;;17.40;90.60;;;;;;5087662;28;20040;-67
2022/08/06 10:43:40;;;;;;;3.25;0.85;;;17.20;90.30;;;;;;5087609;28;20730;-66
2022/08/06 10:46:14;;;;;;;5.05;0.50;;;17.40;91.30;;;;;;5085020;28;20048;-70
2022/08/06 10:48:41;;;;;;;2.05;0.28;;;17.70;91.30;;;;;;5100254;28;20047;-67
2022/08/06 10:51:08;;;;;;;1.58;0.73;;;17.90;91.70;;;;;;5107267;28;20092;-66
2022/08/06 10:53:36;;;;;;;3.95;0.52;;;17.90;90.90;;;;;;5093394;28;20714;-68
2022/08/06 10:56:05;;;;;;;3.60;0.80;;;17.80;90.80;;;;;;5084858;28;20548;-61
2022/08/06 10:58:32;;;;;;;4.45;0.60;;;17.40;91.40;;;;;;5086644;28;20051;-65
2022/08/06 11:01:01;;;;;;;2.85;0.52;;;16.80;92.60;;;;;;5079291;28;20044;-66
2022/08/06 11:03:50;;;;;;;2.08;0.45;;;16.80;94.20;;;;;;5085451;28;20032;-65
2022/08/06 11:06:57;;;;;;;4.75;0.90;;;16.70;93.10;;;;;;5083806;28;20047;-65
2022/08/06 11:09:28;;;;;;;2.88;0.60;;;17.10;92.60;;;;;;5086166;28;20035;-67
2022/08/06 11:12:38;;;;;;;2.50;0.55;;;17.30;91.20;;;;;;5093167;28;20028;-65
2022/08/06 11:15:05;;;;;;;1.67;0.40;;;17.60;91.20;;;;;;5053890;28;20043;-65
2022/08/06 11:17:48;;;;;;;1.30;0.40;;;17.80;91.00;;;;;;5086390;28;20039;-66
2022/08/06 11:20:31;;;;;;;1.70;0.60;;;17.50;90.80;;;;;;5084804;28;20039;-65
2022/08/06 11:22:58;;;;;;;3.45;0.60;;;17.00;89.90;;;;;;5085984;28;20024;-65
2022/08/06 11:25:58;;;;;;;1.02;0.43;;;17.00;91.90;;;;;;5082663;28;20400;-66
2022/08/06 11:28:32;;;;;;;5.68;0.50;;;17.40;90.50;;;;;;5052175;28;20671;-65
2022/08/06 11:31:00;;;;;;;1.05;0.32;;;17.60;90.80;;;;;;5079767;28;20036;-65
2022/08/06 11:33:32;;;;;;;1.80;0.50;;;17.80;87.10;;;;;;5066301;28;20749;-65
2022/08/06 11:36:05;;;;;;;0.70;0.30;;;18.10;90.20;;;;;;5064910;28;20497;-65
2022/08/06 11:38:46;;;;;;;0.82;0.30;;;18.30;90.40;;;;;;5066050;28;20083;-65
2022/08/06 11:41:21;;;;;;;1.55;0.40;;;18.60;88.60;;;;;;5072608;28;20043;-65
2022/08/06 11:43:52;;;;;;;1.63;0.50;;;18.40;88.60;;;;;;5066413;28;20071;-65
2022/08/06 11:46:37;;;;;;;1.80;0.30;;;17.80;88.30;;;;;;5065764;28;20404;-65
2022/08/06 11:49:20;;;;;;;2.45;0.50;;;17.50;88.30;;;;;;5065313;28;20041;-64
2022/08/06 11:51:50;;;;;;;4.05;0.40;;;17.70;90.70;;;;;;5065398;28;20044;-65
2022/08/06 11:54:25;;;;;;;2.28;0.40;;;17.70;89.20;;;;;;5064672;28;20119;-64
2022/08/06 11:59:32;;;;;;;3.53;0.70;;;18.00;90.70;;;;;;5065950;28;20044;-64
2022/08/06 12:01:59;;;;;;;2.20;0.50;;;18.00;88.60;;;;;;5078821;28;20036;-65
2022/08/06 12:04:37;;;;;;;1.42;0.60;;;18.20;90.10;;;;;;5074963;28;20041;-64
2022/08/06 12:07:26;;;;;;;2.33;0.70;;;18.40;86.70;;;;;;5064928;28;20041;-64
2022/08/06 12:10:01;;;;;;;2.75;0.35;;;18.30;91.70;;;;;;5079554;28;20040;-64
2022/08/06 12:12:31;;;;;;;5.47;0.50;;;18.50;88.50;;;;;;5086132;28;20039;-64
2022/08/06 12:14:59;;;;;;;4.65;0.50;;;18.00;85.60;;;;;;5071767;28;20574;-64
2022/08/06 12:17:27;;;;;;;0.90;0.50;;;17.70;88.80;;;;;;5065049;28;20444;-65
2022/08/06 12:19:55;;;;;;;0.63;0.35;;;17.50;89.40;;;;;;5090319;28;20066;-64
2022/08/06 12:22:23;;;;;;;1.65;0.38;;;17.40;90.20;;;;;;5075506;28;20052;-64
2022/08/06 12:24:51;;;;;;;1.98;0.35;;;17.70;86.50;;;;;;5081573;28;20043;-64
2022/08/06 12:27:18;;;;;;;0.68;0.30;;;17.90;85.80;;;;;;5088907;28;20048;-64
2022/08/06 12:29:44;;;;;;;2.80;0.30;;;18.10;80.70;;;;;;5078653;28;20153;-64
2022/08/06 12:32:39;;;;;;;2.45;0.60;;;18.30;84.30;;;;;;5083524;28;20436;-64
2022/08/06 12:35:10;;;;;;;0.45;0.20;;;18.30;85.10;;;;;;5079538;28;20048;-64
2022/08/06 12:37:42;;;;;;;0.40;0.30;;;18.00;87.10;;;;;;5088819;28;20044;-64
2022/08/06 12:40:28;;;;;;;0.70;0.40;;;17.70;85.60;;;;;;5088862;28;20047;-64
2022/08/06 12:43:03;;;;;;;3.00;0.30;;;17.80;86.50;;;;;;5088906;28;20036;-64
2022/08/06 12:45:31;;;;;;;0.52;0.30;;;18.30;87.10;;;;;;5088985;28;20546;-64
2022/08/06 12:48:02;;;;;;;2.25;0.45;;;18.10;85.30;;;;;;5095919;28;20047;-63
2022/08/06 12:50:30;;;;;;;6.82;0.43;;;18.00;87.80;;;;;;5091525;28;20052;-64
2022/08/06 12:53:02;;;;;;;1.48;0.40;;;18.10;85.00;;;;;;5088450;28;20098;-64
2022/08/06 12:55:28;;;;;;;2.15;0.40;;;18.30;88.10;;;;;;5088549;28;20028;-64
2022/08/06 12:57:55;;;;;;;0.98;0.57;;;18.60;84.00;;;;;;5088334;28;20621;-64
2022/08/06 13:00:21;;;;;;;1.38;0.50;;;18.70;81.90;;;;;;5085312;28;20047;-64
2022/08/06 13:02:48;;;;;;;1.17;0.20;;;18.50;82.50;;;;;;5067840;28;20064;-64
2022/08/06 13:05:14;;;;;;;2.30;0.20;;;18.40;83.80;;;;;;5068324;28;20158;-65
2022/08/06 13:07:40;;;;;;;;;;;18.20;82.80;;;;;;5064255;28;20088;-65
2022/08/06 13:10:10;;;;;;;0.30;0.20;;;18.00;83.30;;;;;;5068378;28;19927;-64
2022/08/06 13:12:36;;;;;;;0.43;0.30;;;18.20;81.70;;;;;;5067948;28;20052;-64
2022/08/06 13:15:09;;;;;;;;;;;18.20;80.90;;;;;;5069262;28;20085;-66
2022/08/06 13:17:35;;;;;;;2.13;0.40;;;18.10;82.50;;;;;;5075571;28;20347;-64
2022/08/06 13:20:01;;;;;;;;;;;18.30;79.10;;;;;;5074453;28;20573;-64
2022/08/06 13:22:27;;;;;;;1.05;0.32;;;18.30;82.80;;;;;;5067563;28;19916;-63
2022/08/06 13:25:08;;;;;;;;;;;18.40;86.50;;;;;;5068061;28;20029;-64